Time;durP1;ratioP1;P1;durP2;ratioP2;P2;SDS_P1;SDS_P2;PMS_P1;PMS_P2;Temp;Humidity;BMP_temperature;BMP_pressure;BME280_temperature;BME280_humidity;BME280_pressure;Samples;Min_cycle;Max_cycle;Signal;HPM_P1;HPM_P2
2022/06/30 00:01:35;;;;;;;10.35;4.22;;;;;;;;;;5019532;28;20034;-71
2022/06/30 00:04:01;;;;;;;12.63;4.53;;;;;;;;;;5027225;28;20026;-69
2022/06/30 00:06:27;;;;;;;10.45;4.40;;;;;;;;;;5019740;28;20029;-71
2022/06/30 00:08:53;;;;;;;14.02;4.60;;;;;;;;;;5031618;28;20483;-71
2022/06/30 00:11:20;;;;;;;11.70;4.47;;;;;;;;;;5030818;28;20033;-73
2022/06/30 00:13:46;;;;;;;12.15;5.38;;;;;;;;;;5031800;28;20029;-72
2022/06/30 00:16:12;;;;;;;11.55;5.18;;;;;;;;;;5032152;28;20033;-70
2022/06/30 00:18:38;;;;;;;8.63;5.45;;;;;;;;;;5032180;28;20111;-71
2022/06/30 00:21:05;;;;;;;14.68;6.22;;;;;;;;;;5031757;28;20377;-65
2022/06/30 00:23:31;;;;;;;15.75;5.72;;;;;;;;;;5031777;28;20037;-65
2022/06/30 00:25:59;;;;;;;9.75;5.47;;;;;;;;;;5031891;28;20443;-65
2022/06/30 00:28:25;;;;;;;13.05;5.68;;;;;;;;;;5031563;28;20030;-66
2022/06/30 00:30:52;;;;;;;12.23;5.60;;;;;;;;;;5031959;28;20468;-66
2022/06/30 00:33:18;;;;;;;15.02;5.03;;;;;;;;;;5031887;28;20029;-70
2022/06/30 00:35:45;;;;;;;10.95;5.25;;;;;;;;;;5031671;28;20104;-70
2022/06/30 00:38:12;;;;;;;11.13;5.20;;;;;;;;;;5031851;28;20080;-66
2022/06/30 00:40:40;;;;;;;7.10;4.70;;;;;;;;;;5031771;28;20041;-65
2022/06/30 00:43:05;;;;;;;8.65;4.70;;;;;;;;;;5030236;28;20384;-65
2022/06/30 00:45:32;;;;;;;12.75;4.55;;;;;;;;;;5031290;28;20037;-65
2022/06/30 00:47:59;;;;;;;9.38;4.47;;;;;;;;;;5031068;28;20044;-66
2022/06/30 00:50:26;;;;;;;7.70;4.30;;;;;;;;;;5031296;28;20108;-66
2022/06/30 00:52:52;;;;;;;7.22;4.57;;;;;;;;;;5031411;28;20034;-66
2022/06/30 00:55:19;;;;;;;6.30;3.92;;;;;;;;;;5031759;28;20164;-66
2022/06/30 00:57:45;;;;;;;14.07;4.65;;;;;;;;;;5031568;28;20026;-65
2022/06/30 01:00:14;;;;;;;9.02;4.50;;;;;;;;;;5031612;28;20170;-65
2022/06/30 01:02:40;;;;;;;8.00;4.15;;;;;;;;;;5031365;28;20029;-65
2022/06/30 01:05:07;;;;;;;8.43;4.00;;;;;;;;;;5031128;28;20038;-65
2022/06/30 01:07:34;;;;;;;11.10;4.40;;;;;;;;;;5030947;28;20029;-65
2022/06/30 01:12:46;;;;;;;6.93;4.30;;;;;;;;;;5031141;28;20038;-65
2022/06/30 01:15:17;;;;;;;9.80;4.18;;;;;;;;;;5030070;28;20388;-65
2022/06/30 01:17:44;;;;;;;13.68;4.30;;;;;;;;;;5035060;28;20715;-65
2022/06/30 01:20:10;;;;;;;12.02;4.43;;;;;;;;;;5035011;28;20103;-65
2022/06/30 01:22:37;;;;;;;8.15;4.43;;;;;;;;;;5034915;28;20125;-64
2022/06/30 01:25:04;;;;;;;11.73;4.20;;;;;;;;;;5034981;28;20030;-67
2022/06/30 01:27:30;;;;;;;7.40;4.00;;;;;;;;;;5034535;28;20392;-65
2022/06/30 01:29:57;;;;;;;5.72;3.65;;;;;;;;;;5013697;28;20026;-66
2022/06/30 01:32:25;;;;;;;6.90;3.83;;;;;;;;;;5014887;28;20053;-68
2022/06/30 01:34:52;;;;;;;5.07;4.07;;;;;;;;;;5015383;28;20459;-66
2022/06/30 01:37:18;;;;;;;8.77;4.75;;;;;;;;;;5015197;28;20449;-66
2022/06/30 01:39:44;;;;;;;6.45;4.15;;;;;;;;;;5015214;28;20026;-67
2022/06/30 01:42:10;;;;;;;11.85;3.95;;;;;;;;;;5015115;28;20543;-69
2022/06/30 01:44:36;;;;;;;8.63;4.65;;;;;;;;;;5014800;28;20041;-68
2022/06/30 01:47:03;;;;;;;9.10;4.75;;;;;;;;;;5028982;28;20465;-69
2022/06/30 01:49:28;;;;;;;10.75;4.32;;;;;;;;;;5034503;28;20034;-68
2022/06/30 01:51:54;;;;;;;8.25;4.40;;;;;;;;;;5034506;28;20427;-67
2022/06/30 01:54:20;;;;;;;12.95;4.80;;;;;;;;;;5034388;28;20022;-65
2022/06/30 01:56:46;;;;;;;10.63;4.53;;;;;;;;;;5046556;28;20052;-65
2022/06/30 01:59:13;;;;;;;8.07;4.50;;;;;;;;;;5072706;28;20082;-69
2022/06/30 02:01:39;;;;;;;8.93;4.82;;;;;;;;;;5074503;28;20032;-64
2022/06/30 02:06:49;;;;;;;9.20;4.32;;;;;;;;;;5073615;28;20032;-65
2022/06/30 02:09:15;;;;;;;6.93;4.53;;;;;;;;;;5073807;28;20447;-66
2022/06/30 02:11:41;;;;;;;6.72;3.67;;;;;;;;;;5058199;28;20037;-64
2022/06/30 02:14:07;;;;;;;7.82;4.43;;;;;;;;;;5054263;28;20033;-65
2022/06/30 02:16:33;;;;;;;8.50;4.45;;;;;;;;;;5053665;28;20033;-65
2022/06/30 02:18:58;;;;;;;7.22;3.88;;;;;;;;;;5054053;28;20080;-65
2022/06/30 02:21:24;;;;;;;11.88;4.32;;;;;;;;;;5053882;28;20045;-65
2022/06/30 02:23:53;;;;;;;10.00;5.13;;;;;;;;;;5053875;28;20039;-66
2022/06/30 02:26:19;;;;;;;7.75;5.00;;;;;;;;;;5053688;28;20475;-65
2022/06/30 02:28:45;;;;;;;10.35;4.90;;;;;;;;;;5052872;28;20671;-66
2022/06/30 02:31:14;;;;;;;8.52;5.18;;;;;;;;;;5053080;28;20037;-65
2022/06/30 02:33:40;;;;;;;7.05;5.03;;;;;;;;;;5053528;28;20025;-66
2022/06/30 02:36:06;;;;;;;6.95;4.55;;;;;;;;;;5052686;28;20032;-66
2022/06/30 02:38:33;;;;;;;7.97;4.63;;;;;;;;;;5053095;28;20024;-66
2022/06/30 02:40:58;;;;;;;10.57;4.70;;;;;;;;;;5054026;28;20383;-65
2022/06/30 02:43:24;;;;;;;7.45;4.70;;;;;;;;;;5062240;28;20037;-66
2022/06/30 02:45:51;;;;;;;9.60;5.20;;;;;;;;;;5061064;28;20460;-65
2022/06/30 02:48:18;;;;;;;9.05;4.70;;;;;;;;;;5060775;28;20427;-65
2022/06/30 02:50:44;;;;;;;9.45;4.90;;;;;;;;;;5070856;28;20128;-66
2022/06/30 02:53:11;;;;;;;13.90;5.10;;;;;;;;;;5052750;28;20029;-65
2022/06/30 02:55:37;;;;;;;10.10;5.30;;;;;;;;;;5051753;28;20036;-65
2022/06/30 02:58:03;;;;;;;10.82;5.40;;;;;;;;;;5054492;28;20021;-67
2022/06/30 03:00:29;;;;;;;10.40;5.00;;;;;;;;;;5057207;28;20042;-65
2022/06/30 03:02:57;;;;;;;8.90;4.90;;;;;;;;;;5061389;28;20044;-65
2022/06/30 03:05:24;;;;;;;17.80;4.97;;;;;;;;;;5065952;28;20040;-65
2022/06/30 03:07:50;;;;;;;7.65;4.70;;;;;;;;;;5070839;28;20113;-66
2022/06/30 03:10:16;;;;;;;8.90;4.50;;;;;;;;;;5064612;28;20033;-72
2022/06/30 03:12:42;;;;;;;8.70;4.53;;;;;;;;;;5058877;28;20032;-69
2022/06/30 03:15:08;;;;;;;9.07;5.10;;;;;;;;;;5052622;28;20048;-73
2022/06/30 03:17:34;;;;;;;16.30;4.82;;;;;;;;;;5051859;28;20074;-67
2022/06/30 03:20:00;;;;;;;16.38;5.63;;;;;;;;;;5052677;28;20037;-68
2022/06/30 03:22:26;;;;;;;9.00;5.43;;;;;;;;;;5071125;28;20048;-71
2022/06/30 03:24:52;;;;;;;12.25;5.07;;;;;;;;;;5072117;28;20024;-68
2022/06/30 03:27:18;;;;;;;12.43;4.72;;;;;;;;;;5072098;28;20021;-67
2022/06/30 03:29:44;;;;;;;13.32;5.40;;;;;;;;;;5061361;28;20020;-68
2022/06/30 03:32:10;;;;;;;10.02;4.45;;;;;;;;;;5055197;28;20035;-66
2022/06/30 03:34:36;;;;;;;6.72;3.78;;;;;;;;;;5051047;28;20059;-67
2022/06/30 03:37:02;;;;;;;12.77;4.90;;;;;;;;;;5071042;28;20115;-65
2022/06/30 03:39:27;;;;;;;8.45;5.13;;;;;;;;;;5069359;28;20046;-67
2022/06/30 03:41:53;;;;;;;8.80;4.60;;;;;;;;;;5071632;28;20043;-65
2022/06/30 03:44:19;;;;;;;7.93;5.55;;;;;;;;;;5064669;28;20423;-65
2022/06/30 03:46:45;;;;;;;5.93;4.00;;;;;;;;;;5052299;28;20079;-65
2022/06/30 03:49:11;;;;;;;7.90;4.03;;;;;;;;;;5051779;28;20029;-65
2022/06/30 03:51:37;;;;;;;20.92;5.82;;;;;;;;;;5068362;28;20422;-65
2022/06/30 03:54:03;;;;;;;13.02;5.45;;;;;;;;;;5071798;28;20040;-65
2022/06/30 03:56:29;;;;;;;6.25;4.20;;;;;;;;;;5071373;28;20541;-65
2022/06/30 03:58:55;;;;;;;11.13;4.45;;;;;;;;;;5069507;28;20075;-66
2022/06/30 04:01:21;;;;;;;14.98;4.97;;;;;;;;;;5071126;28;20061;-67
2022/06/30 04:03:47;;;;;;;12.75;4.22;;;;;;;;;;5069599;28;20037;-63
2022/06/30 04:06:14;;;;;;;6.55;3.85;;;;;;;;;;5069811;28;20103;-65
2022/06/30 04:08:42;;;;;;;8.15;5.28;;;;;;;;;;5069823;28;20544;-66
2022/06/30 04:11:08;;;;;;;14.50;4.32;;;;;;;;;;5070825;28;20035;-65
2022/06/30 04:13:34;;;;;;;7.75;4.65;;;;;;;;;;5070285;28;20099;-65
2022/06/30 04:16:00;;;;;;;14.73;4.80;;;;;;;;;;5071258;28;20520;-66
2022/06/30 04:18:26;;;;;;;9.98;4.43;;;;;;;;;;5070742;28;20036;-65
2022/06/30 04:20:52;;;;;;;17.17;4.93;;;;;;;;;;5051895;28;20095;-65
2022/06/30 04:23:18;;;;;;;11.23;4.93;;;;;;;;;;5050082;28;20506;-66
2022/06/30 04:25:44;;;;;;;8.00;4.10;;;;;;;;;;5051700;28;20033;-65
2022/06/30 04:28:10;;;;;;;17.35;5.35;;;;;;;;;;5070522;28;20028;-67
2022/06/30 04:33:20;;;;;;;9.30;3.85;;;;;;;;;;5069252;28;20031;-65
2022/06/30 04:35:46;;;;;;;7.95;4.07;;;;;;;;;;5069121;28;20024;-65
2022/06/30 04:38:12;;;;;;;8.25;3.75;;;;;;;;;;5070877;28;20029;-66
2022/06/30 04:43:22;;;;;;;13.40;3.83;;;;;;;;;;5070340;28;20050;-65
2022/06/30 04:45:47;;;;;;;8.35;3.53;;;;;;;;;;5069851;28;20463;-65
2022/06/30 04:48:14;;;;;;;9.00;3.92;;;;;;;;;;5069814;28;20024;-65
2022/06/30 04:50:40;;;;;;;10.23;3.55;;;;;;;;;;5071900;28;20056;-67
2022/06/30 04:53:06;;;;;;;11.55;4.03;;;;;;;;;;5074460;28;20055;-66
2022/06/30 04:55:32;;;;;;;9.95;4.35;;;;;;;;;;5074833;28;20026;-66
2022/06/30 04:57:58;;;;;;;9.60;3.80;;;;;;;;;;5075191;28;20063;-66
2022/06/30 05:00:24;;;;;;;11.20;4.57;;;;;;;;;;5075253;28;20044;-66
2022/06/30 05:02:50;;;;;;;8.85;3.90;;;;;;;;;;5074991;28;20532;-67
2022/06/30 05:05:16;;;;;;;9.52;3.55;;;;;;;;;;5075926;28;20127;-67
2022/06/30 05:07:42;;;;;;;5.32;3.42;;;;;;;;;;5075859;28;20071;-67
2022/06/30 05:10:08;;;;;;;12.32;3.53;;;;;;;;;;5074358;28;20091;-68
2022/06/30 05:12:33;;;;;;;9.55;3.58;;;;;;;;;;5075853;28;20033;-67
2022/06/30 05:14:59;;;;;;;9.50;4.05;;;;;;;;;;5074141;28;20025;-66
2022/06/30 05:17:25;;;;;;;10.18;3.67;;;;;;;;;;5074513;28;20050;-66
2022/06/30 05:19:51;;;;;;;13.07;4.53;;;;;;;;;;5074991;28;20017;-67
2022/06/30 05:22:17;;;;;;;8.57;4.13;;;;;;;;;;5074916;28;20168;-67
2022/06/30 05:27:27;;;;;;;12.00;4.38;;;;;;;;;;5054703;28;20032;-67
2022/06/30 05:29:54;;;;;;;13.57;4.25;;;;;;;;;;5054960;28;20460;-69
2022/06/30 05:32:20;;;;;;;9.02;4.18;;;;;;;;;;5054903;28;20044;-65
2022/06/30 05:34:46;;;;;;;8.45;4.13;;;;;;;;;;5068325;28;20016;-66
2022/06/30 05:37:13;;;;;;;13.20;4.32;;;;;;;;;;5072372;28;20029;-67
2022/06/30 05:39:39;;;;;;;7.93;3.92;;;;;;;;;;5060464;28;20028;-66
2022/06/30 05:42:05;;;;;;;7.32;4.13;;;;;;;;;;5074432;28;20115;-66
2022/06/30 05:44:32;;;;;;;7.90;3.90;;;;;;;;;;5071987;28;20029;-66
2022/06/30 05:46:58;;;;;;;10.20;3.92;;;;;;;;;;5063203;28;20029;-66
2022/06/30 05:49:25;;;;;;;11.80;3.88;;;;;;;;;;5054047;28;20043;-66
2022/06/30 05:51:54;;;;;;;9.95;4.20;;;;;;;;;;5065774;28;20074;-65
2022/06/30 05:54:20;;;;;;;12.55;4.25;;;;;;;;;;5073857;28;20020;-67
2022/06/30 05:56:46;;;;;;;9.13;3.85;;;;;;;;;;5072626;28;20506;-66
2022/06/30 05:59:11;;;;;;;11.98;3.75;;;;;;;;;;5074086;28;20027;-66
2022/06/30 06:01:37;;;;;;;9.48;3.50;;;;;;;;;;5073011;28;20028;-66
2022/06/30 06:04:03;;;;;;;13.18;4.43;;;;;;;;;;5073323;28;20040;-66
2022/06/30 06:06:29;;;;;;;10.48;3.63;;;;;;;;;;5073166;28;20086;-66
2022/06/30 06:08:55;;;;;;;10.10;3.33;;;;;;;;;;5072887;28;20020;-66
2022/06/30 06:11:21;;;;;;;7.72;3.15;;;;;;;;;;5073412;28;20028;-67
2022/06/30 06:13:47;;;;;;;10.30;3.55;;;;;;;;;;5072836;28;20416;-66
2022/06/30 06:16:13;;;;;;;8.73;3.78;;;;;;;;;;5071884;28;20051;-67
2022/06/30 06:18:38;;;;;;;11.35;3.70;;;;;;;;;;5052532;28;20683;-65
2022/06/30 06:21:04;;;;;;;9.45;3.13;;;;;;;;;;5058805;28;20068;-67
2022/06/30 06:23:30;;;;;;;7.35;3.03;;;;;;;;;;5072189;28;20040;-68
2022/06/30 06:25:56;;;;;;;6.47;2.97;;;;;;;;;;5071740;28;20090;-67
2022/06/30 06:31:07;;;;;;;8.80;3.22;;;;;;;;;;5065356;28;20434;-66
2022/06/30 06:33:34;;;;;;;11.68;3.60;;;;;;;;;;5062129;28;20024;-66
2022/06/30 06:36:00;;;;;;;7.97;3.42;;;;;;;;;;5067710;28;20121;-66
2022/06/30 06:38:27;;;;;;;7.65;3.42;;;;;;;;;;5067920;28;20055;-68
2022/06/30 06:40:52;;;;;;;8.80;3.42;;;;;;;;;;5073814;28;20090;-68
2022/06/30 06:43:18;;;;;;;7.30;3.38;;;;;;;;;;5078358;28;20036;-66
2022/06/30 06:45:44;;;;;;;6.85;3.40;;;;;;;;;;5071154;28;20051;-67
2022/06/30 06:48:10;;;;;;;9.98;3.40;;;;;;;;;;5056779;28;20051;-69
2022/06/30 06:50:36;;;;;;;7.80;2.92;;;;;;;;;;5065716;28;20033;-67
2022/06/30 06:53:03;;;;;;;13.50;3.55;;;;;;;;;;5062288;28;20024;-68
2022/06/30 06:55:30;;;;;;;7.57;3.30;;;;;;;;;;5063282;28;20068;-67
2022/06/30 06:57:56;;;;;;;7.50;3.17;;;;;;;;;;5060162;28;20458;-68
2022/06/30 07:00:22;;;;;;;5.15;3.10;;;;;;;;;;5056917;28;20130;-68
2022/06/30 07:02:48;;;;;;;6.63;2.80;;;;;;;;;;5059968;28;20037;-67
2022/06/30 07:05:13;;;;;;;7.53;2.90;;;;;;;;;;5056121;28;20029;-67
2022/06/30 07:07:39;;;;;;;5.70;3.03;;;;;;;;;;5050342;28;20033;-66
2022/06/30 07:10:08;;;;;;;6.15;3.20;;;;;;;;;;5057405;28;20033;-65
2022/06/30 07:12:35;;;;;;;4.38;2.83;;;;;;;;;;5063994;28;20119;-66
2022/06/30 07:15:01;;;;;;;6.85;3.22;;;;;;;;;;5071651;28;20167;-67
2022/06/30 07:17:27;;;;;;;7.65;2.92;;;;;;;;;;5071612;28;20111;-68
2022/06/30 07:19:53;;;;;;;4.05;2.40;;;;;;;;;;5071341;28;20540;-66
2022/06/30 07:22:19;;;;;;;4.15;2.60;;;;;;;;;;5070287;28;20136;-66
2022/06/30 07:24:44;;;;;;;8.15;2.92;;;;;;;;;;5069538;28;20085;-66
2022/06/30 07:27:11;;;;;;;7.50;3.28;;;;;;;;;;5072603;28;20103;-71
2022/06/30 07:29:36;;;;;;;5.43;2.67;;;;;;;;;;5072537;28;20113;-66
2022/06/30 07:32:02;;;;;;;4.82;2.72;;;;;;;;;;5072494;28;20032;-66
2022/06/30 07:34:28;;;;;;;5.43;2.78;;;;;;;;;;5072783;28;20127;-66
2022/06/30 07:36:54;;;;;;;4.38;2.65;;;;;;;;;;5072031;28;20043;-67
2022/06/30 07:39:20;;;;;;;8.07;2.92;;;;;;;;;;5072611;28;20029;-67
2022/06/30 07:41:46;;;;;;;4.57;2.90;;;;;;;;;;5072622;28;20036;-70
2022/06/30 07:44:11;;;;;;;12.77;3.75;;;;;;;;;;5072265;28;20074;-68
2022/06/30 07:46:37;;;;;;;5.25;2.90;;;;;;;;;;5072597;28;20032;-70
2022/06/30 07:49:03;;;;;;;8.05;2.83;;;;;;;;;;5072060;28;20103;-70
2022/06/30 07:51:29;;;;;;;6.40;3.20;;;;;;;;;;5072085;28;20070;-69
2022/06/30 07:53:55;;;;;;;6.10;3.25;;;;;;;;;;5072557;28;20064;-69
2022/06/30 07:56:21;;;;;;;7.80;2.83;;;;;;;;;;5072157;28;20021;-68
2022/06/30 07:58:47;;;;;;;8.30;3.28;;;;;;;;;;5072382;28;20029;-76
2022/06/30 08:01:13;;;;;;;4.00;2.90;;;;;;;;;;5071766;28;20035;-72
2022/06/30 08:03:39;;;;;;;9.57;3.65;;;;;;;;;;5071314;28;20044;-71
2022/06/30 08:06:04;;;;;;;9.10;3.20;;;;;;;;;;5071734;28;20448;-71
2022/06/30 08:08:31;;;;;;;4.57;2.90;;;;;;;;;;5071543;28;20114;-73
2022/06/30 08:10:56;;;;;;;6.95;3.47;;;;;;;;;;5071837;28;20109;-76
2022/06/30 08:13:23;;;;;;;7.25;2.85;;;;;;;;;;5072034;28;20111;-77
2022/06/30 08:15:49;;;;;;;4.45;2.90;;;;;;;;;;5071524;28;20364;-73
2022/06/30 08:18:15;;;;;;;7.45;3.05;;;;;;;;;;5071738;28;20082;-73
2022/06/30 08:20:40;;;;;;;7.95;2.97;;;;;;;;;;5071896;28;20037;-75
2022/06/30 08:23:07;;;;;;;9.75;3.20;;;;;;;;;;5071856;28;20086;-77
2022/06/30 08:25:33;;;;;;;5.70;3.30;;;;;;;;;;5071359;28;20064;-72
2022/06/30 08:27:59;;;;;;;5.22;3.13;;;;;;;;;;5071266;28;20029;-72
2022/06/30 08:30:25;;;;;;;5.50;3.20;;;;;;;;;;5071464;28;20085;-73
2022/06/30 08:32:50;;;;;;;7.80;3.65;;;;;;;;;;5072172;28;20563;-72
2022/06/30 08:35:16;;;;;;;7.93;2.97;;;;;;;;;;5073644;28;20052;-75
2022/06/30 08:37:42;;;;;;;5.55;3.15;;;;;;;;;;5071438;28;20629;-71
2022/06/30 08:42:54;;;;;;;6.82;2.92;;;;;;;;;;5071544;28;20068;-75
2022/06/30 08:45:21;;;;;;;8.13;2.90;;;;;;;;;;5071357;28;20024;-70
2022/06/30 08:47:47;;;;;;;6.68;3.20;;;;;;;;;;5071118;28;20075;-72
2022/06/30 08:50:15;;;;;;;7.68;2.63;;;;;;;;;;5071538;28;20032;-73
2022/06/30 08:52:45;;;;;;;4.85;3.17;;;;;;;;;;5070963;28;20090;-72
2022/06/30 08:55:13;;;;;;;6.93;2.90;;;;;;;;;;5071416;28;20104;-73
2022/06/30 08:57:40;;;;;;;5.90;2.50;;;;;;;;;;5071321;28;20119;-74
2022/06/30 09:00:07;;;;;;;5.88;2.85;;;;;;;;;;5071371;28;20428;-73
2022/06/30 09:02:33;;;;;;;6.15;2.90;;;;;;;;;;5071470;28;20085;-71
2022/06/30 09:04:59;;;;;;;4.90;2.88;;;;;;;;;;5071819;28;20024;-72
2022/06/30 09:07:24;;;;;;;6.50;3.03;;;;;;;;;;5071400;28;20043;-73
2022/06/30 09:09:50;;;;;;;5.93;4.05;;;;;;;;;;5071559;28;20046;-72
2022/06/30 09:12:18;;;;;;;7.32;3.30;;;;;;;;;;5071938;28;20419;-70
2022/06/30 09:14:47;;;;;;;6.43;3.13;;;;;;;;;;5071491;28;20040;-71
2022/06/30 09:17:15;;;;;;;7.72;3.30;;;;;;;;;;5071182;28;20037;-72
2022/06/30 09:19:52;;;;;;;7.65;3.63;;;;;;;;;;5070552;28;20022;-73
2022/06/30 09:22:19;;;;;;;6.72;3.50;;;;;;;;;;5071011;28;20051;-71
2022/06/30 09:24:44;;;;;;;6.63;3.22;;;;;;;;;;5071807;28;20115;-70
2022/06/30 09:27:19;;;;;;;8.88;3.30;;;;;;;;;;5071455;28;20557;-73
2022/06/30 09:29:52;;;;;;;6.28;3.38;;;;;;;;;;5071237;28;20032;-71
2022/06/30 09:32:18;;;;;;;5.47;3.00;;;;;;;;;;5070549;28;20534;-69
2022/06/30 09:34:44;;;;;;;6.32;3.30;;;;;;;;;;5069484;28;20810;-70
2022/06/30 09:37:24;;;;;;;5.75;3.20;;;;;;;;;;5073133;28;20040;-71
2022/06/30 09:39:53;;;;;;;5.85;3.30;;;;;;;;;;5074125;28;20036;-73
2022/06/30 09:42:40;;;;;;;5.57;3.10;;;;;;;;;;5074676;28;20032;-73
2022/06/30 09:45:09;;;;;;;6.15;2.70;;;;;;;;;;5074211;28;20170;-73
2022/06/30 09:47:36;;;;;;;4.05;2.80;;;;;;;;;;5074272;28;20017;-71
2022/06/30 09:50:06;;;;;;;9.75;7.28;;;;;;;;;;5074010;28;20024;-72
2022/06/30 09:52:33;;;;;;;5.57;2.70;;;;;;;;;;5074496;28;20111;-69
2022/06/30 09:55:06;;;;;;;6.80;3.08;;;;;;;;;;5074626;28;20021;-72
2022/06/30 09:57:38;;;;;;;5.13;2.92;;;;;;;;;;5065789;28;20072;-71
2022/06/30 10:00:12;;;;;;;8.20;3.20;;;;;;;;;;5073330;28;20095;-71
2022/06/30 10:02:46;;;;;;;6.55;3.28;;;;;;;;;;5072814;28;20048;-69
2022/06/30 10:05:13;;;;;;;3.50;2.60;;;;;;;;;;5072575;28;20039;-71
2022/06/30 10:07:40;;;;;;;8.52;2.75;;;;;;;;;;5073452;28;20104;-71
2022/06/30 10:10:11;;;;;;;4.13;2.90;;;;;;;;;;5074134;28;20040;-74
2022/06/30 10:12:38;;;;;;;5.97;3.13;;;;;;;;;;5073706;28;20032;-72
2022/06/30 10:15:06;;;;;;;8.68;2.90;;;;;;;;;;5073861;28;20027;-71
2022/06/30 10:17:34;;;;;;;5.22;3.33;;;;;;;;;;5062097;28;20091;-72
2022/06/30 10:20:01;;;;;;;6.22;4.55;;;;;;;;;;5054487;28;20404;-74
2022/06/30 10:22:29;;;;;;;7.82;2.97;;;;;;;;;;5061600;28;20152;-72
2022/06/30 10:24:56;;;;;;;6.57;2.67;;;;;;;;;;5080028;28;20348;-73
2022/06/30 10:27:24;;;;;;;6.20;3.00;;;;;;;;;;5078097;28;20032;-72
2022/06/30 10:29:57;;;;;;;9.23;4.10;;;;;;;;;;5073859;28;20077;-69
2022/06/30 10:32:46;;;;;;;8.85;3.58;;;;;;;;;;5074058;28;20033;-72
2022/06/30 10:35:15;;;;;;;6.95;3.28;;;;;;;;;;5073302;28;20116;-77
2022/06/30 10:37:44;;;;;;;9.70;2.83;;;;;;;;;;5074022;28;20067;-72
2022/06/30 10:40:15;;;;;;;4.75;3.13;;;;;;;;;;5073995;28;20060;-73
2022/06/30 10:42:46;;;;;;;7.32;3.10;;;;;;;;;;5073932;28;20033;-75
2022/06/30 10:45:30;;;;;;;4.40;2.97;;;;;;;;;;5073786;28;20055;-71
2022/06/30 10:48:05;;;;;;;13.48;2.95;;;;;;;;;;5072829;28;20415;-72
2022/06/30 10:50:42;;;;;;;7.38;3.30;;;;;;;;;;5073482;28;20094;-71
2022/06/30 10:53:16;;;;;;;5.72;3.00;;;;;;;;;;5073580;28;20501;-70
2022/06/30 10:55:45;;;;;;;4.22;3.10;;;;;;;;;;5069843;28;20036;-70
2022/06/30 10:58:11;;;;;;;7.88;3.05;;;;;;;;;;5066393;28;20466;-71
2022/06/30 11:00:55;;;;;;;12.95;3.42;;;;;;;;;;5065151;28;20031;-73
2022/06/30 11:03:30;;;;;;;7.18;3.00;;;;;;;;;;5072176;28;20036;-77
2022/06/30 11:05:58;;;;;;;6.50;3.03;;;;;;;;;;5068502;28;20063;-71
2022/06/30 11:08:36;;;;;;;7.95;3.42;;;;;;;;;;5069628;28;20099;-72
2022/06/30 11:11:40;;;;;;;5.28;3.63;;;;;;;;;;5056852;28;20052;-71
2022/06/30 11:14:07;;;;;;;5.60;3.47;;;;;;;;;;5046510;28;20496;-71
2022/06/30 11:16:38;;;;;;;4.60;3.30;;;;;;;;;;5066655;28;20431;-71
2022/06/30 11:19:13;;;;;;;7.38;3.95;;;;;;;;;;5073435;28;20035;-72
2022/06/30 11:21:48;;;;;;;9.15;4.40;;;;;;;;;;5073245;28;20330;-71
2022/06/30 11:24:16;;;;;;;11.68;3.90;;;;;;;;;;5072974;28;20040;-77
2022/06/30 11:29:29;;;;;;;6.28;3.17;;;;;;;;;;5067838;28;20033;-76
2022/06/30 11:31:59;;;;;;;8.32;3.47;;;;;;;;;;5054570;28;20021;-77
2022/06/30 11:34:26;;;;;;;5.22;2.80;;;;;;;;;;5051540;28;20552;-75
2022/06/30 11:36:52;;;;;;;4.32;3.08;;;;;;;;;;5055035;28;20025;-71
2022/06/30 11:39:20;;;;;;;6.88;3.13;;;;;;;;;;5065258;28;20433;-77
2022/06/30 11:41:57;;;;;;;4.88;2.75;;;;;;;;;;5065842;28;20021;-72
2022/06/30 11:44:29;;;;;;;8.85;3.00;;;;;;;;;;5060540;28;20371;-71
2022/06/30 11:46:59;;;;;;;7.63;3.75;;;;;;;;;;5059448;28;20029;-75
2022/06/30 11:49:41;;;;;;;7.00;3.00;;;;;;;;;;5061863;28;20044;-73
2022/06/30 11:52:20;;;;;;;7.97;3.20;;;;;;;;;;5065026;28;20078;-75
2022/06/30 11:54:51;;;;;;;4.40;3.28;;;;;;;;;;5071127;28;20040;-72
2022/06/30 11:57:19;;;;;;;4.72;2.90;;;;;;;;;;5064155;28;20123;-74
2022/06/30 11:59:46;;;;;;;5.53;2.78;;;;;;;;;;5051278;28;20120;-71
2022/06/30 12:02:13;;;;;;;8.05;2.95;;;;;;;;;;5051507;28;20056;-77
2022/06/30 12:04:43;;;;;;;5.15;2.88;;;;;;;;;;5062872;28;20028;-73
2022/06/30 12:07:12;;;;;;;8.38;3.72;;;;;;;;;;5070481;28;20039;-75
2022/06/30 12:09:38;;;;;;;4.50;3.20;;;;;;;;;;5069714;28;20024;-71
2022/06/30 12:12:05;;;;;;;6.13;3.33;;;;;;;;;;5061091;28;20472;-74
2022/06/30 12:14:36;;;;;;;7.60;3.65;;;;;;;;;;5060663;28;20043;-76
2022/06/30 12:17:07;;;;;;;7.10;3.50;;;;;;;;;;5063256;28;20111;-77
2022/06/30 12:19:33;;;;;;;6.10;3.50;;;;;;;;;;5071866;28;20036;-72
2022/06/30 12:22:00;;;;;;;5.55;3.50;;;;;;;;;;5071480;28;20063;-71
2022/06/30 12:24:27;;;;;;;4.65;3.13;;;;;;;;;;5071710;28;20032;-78
2022/06/30 12:26:58;;;;;;;9.65;3.90;;;;;;;;;;5072166;28;20024;-77
2022/06/30 12:29:27;;;;;;;5.47;3.60;;;;;;;;;;5071503;28;20025;-72
2022/06/30 12:32:10;;;;;;;8.23;3.60;;;;;;;;;;5072076;28;20025;-74
2022/06/30 12:34:56;;;;;;;5.70;3.00;;;;;;;;;;5065964;28;20055;-72
2022/06/30 12:37:29;;;;;;;5.95;2.90;;;;;;;;;;5062905;28;20024;-71
2022/06/30 12:39:57;;;;;;;4.60;2.83;;;;;;;;;;5069312;28;20032;-73
2022/06/30 12:42:23;;;;;;;5.65;3.08;;;;;;;;;;5066008;28;20048;-69
2022/06/30 12:44:49;;;;;;;4.88;3.00;;;;;;;;;;5063152;28;20020;-74
2022/06/30 12:47:15;;;;;;;5.13;3.05;;;;;;;;;;5051318;28;20486;-71
2022/06/30 12:49:41;;;;;;;7.68;2.85;;;;;;;;;;5062652;28;20483;-71
2022/06/30 12:52:15;;;;;;;10.98;3.72;;;;;;;;;;5071185;28;20029;-71
2022/06/30 12:54:55;;;;;;;4.68;2.58;;;;;;;;;;5070847;28;20036;-71
2022/06/30 12:57:22;;;;;;;5.57;2.90;;;;;;;;;;5065139;28;20120;-72
2022/06/30 12:59:51;;;;;;;5.10;3.08;;;;;;;;;;5060103;28;20059;-76
2022/06/30 13:02:18;;;;;;;6.68;3.17;;;;;;;;;;5055342;28;20033;-74
2022/06/30 13:04:55;;;;;;;7.57;3.15;;;;;;;;;;5053233;28;20100;-78
2022/06/30 13:07:21;;;;;;;4.35;2.78;;;;;;;;;;5069756;28;20072;-72
2022/06/30 13:09:49;;;;;;;7.30;3.13;;;;;;;;;;5051040;28;20447;-71
2022/06/30 13:12:16;;;;;;;7.18;2.92;;;;;;;;;;5053676;28;20095;-76
2022/06/30 13:14:43;;;;;;;5.32;2.70;;;;;;;;;;5059247;28;20052;-74
2022/06/30 13:17:11;;;;;;;6.50;3.15;;;;;;;;;;5060980;28;20043;-74
2022/06/30 13:19:37;;;;;;;4.25;2.63;;;;;;;;;;5063808;28;20033;-74
2022/06/30 13:22:04;;;;;;;5.13;2.97;;;;;;;;;;5065016;28;20076;-71
2022/06/30 13:24:30;;;;;;;4.35;2.75;;;;;;;;;;5061889;28;20040;-72
2022/06/30 13:27:02;;;;;;;5.60;2.90;;;;;;;;;;5074613;28;20040;-71
2022/06/30 13:29:32;;;;;;;5.32;2.92;;;;;;;;;;5073657;28;20068;-76
2022/06/30 13:31:58;;;;;;;6.45;2.83;;;;;;;;;;5073969;28;20475;-70
2022/06/30 13:34:25;;;;;;;6.25;2.80;;;;;;;;;;5074425;28;20039;-71
2022/06/30 13:36:52;;;;;;;6.43;2.80;;;;;;;;;;5073963;28;20025;-73
2022/06/30 13:39:18;;;;;;;6.00;2.95;;;;;;;;;;5074025;28;20055;-72
2022/06/30 13:41:44;;;;;;;4.75;2.65;;;;;;;;;;5064723;28;20429;-73
2022/06/30 13:44:10;;;;;;;4.07;2.95;;;;;;;;;;5067711;28;20032;-73
2022/06/30 13:46:38;;;;;;;7.80;2.80;;;;;;;;;;5071419;28;20490;-72
2022/06/30 13:49:08;;;;;;;5.03;2.95;;;;;;;;;;5067981;28;20024;-74
2022/06/30 13:51:34;;;;;;;5.00;3.15;;;;;;;;;;5072154;28;20123;-74
2022/06/30 13:54:00;;;;;;;4.55;2.85;;;;;;;;;;5074075;28;20025;-73
2022/06/30 13:56:27;;;;;;;5.43;2.60;;;;;;;;;;5074057;28;20040;-71
2022/06/30 13:58:53;;;;;;;3.50;2.58;;;;;;;;;;5065431;28;20020;-72
2022/06/30 14:01:19;;;;;;;5.13;2.70;;;;;;;;;;5072763;28;20051;-72
2022/06/30 14:03:45;;;;;;;6.07;2.60;;;;;;;;;;5072321;28;20029;-74
2022/06/30 14:06:11;;;;;;;4.70;2.90;;;;;;;;;;5073387;28;20037;-71
2022/06/30 14:08:37;;;;;;;9.15;3.03;;;;;;;;;;5072811;28;20115;-70
2022/06/30 14:11:03;;;;;;;4.45;2.55;;;;;;;;;;5072756;28;20170;-69
2022/06/30 14:13:29;;;;;;;6.50;2.88;;;;;;;;;;5073146;28;20035;-70
2022/06/30 14:15:55;;;;;;;6.70;2.75;;;;;;;;;;5073101;28;20059;-70
2022/06/30 14:18:21;;;;;;;3.30;2.58;;;;;;;;;;5072907;28;20052;-70
2022/06/30 14:20:49;;;;;;;5.68;2.63;;;;;;;;;;5072920;28;20036;-69
2022/06/30 14:23:15;;;;;;;3.92;2.60;;;;;;;;;;5071650;28;20037;-69
2022/06/30 14:25:41;;;;;;;5.22;2.70;;;;;;;;;;5073286;28;20041;-70
2022/06/30 14:28:07;;;;;;;6.20;3.00;;;;;;;;;;5073385;28;20017;-74
2022/06/30 14:30:34;;;;;;;3.90;2.55;;;;;;;;;;5072922;28;20471;-69
2022/06/30 14:33:03;;;;;;;4.57;2.60;;;;;;;;;;5073670;28;20025;-71
2022/06/30 14:35:30;;;;;;;6.25;2.50;;;;;;;;;;5073017;28;20028;-70
2022/06/30 14:37:56;;;;;;;6.10;2.67;;;;;;;;;;5072856;28;20025;-74
2022/06/30 14:40:22;;;;;;;6.03;2.53;;;;;;;;;;5073182;28;20028;-72
2022/06/30 14:42:50;;;;;;;5.00;2.85;;;;;;;;;;5073273;28;20065;-73
2022/06/30 14:45:27;;;;;;;6.85;2.70;;;;;;;;;;5073168;28;20040;-71
2022/06/30 14:47:54;;;;;;;4.00;2.50;;;;;;;;;;5072847;28;20103;-76
2022/06/30 14:50:21;;;;;;;5.40;2.50;;;;;;;;;;5072105;28;20017;-77
2022/06/30 14:52:48;;;;;;;6.35;2.70;;;;;;;;;;5073404;28;20471;-71
2022/06/30 14:55:16;;;;;;;6.70;2.80;;;;;;;;;;5073935;28;20024;-72
2022/06/30 14:57:46;;;;;;;3.67;2.20;;;;;;;;;;5073414;28;20078;-75
2022/06/30 15:00:14;;;;;;;3.28;2.28;;;;;;;;;;5073392;28;20123;-74
2022/06/30 15:02:40;;;;;;;5.90;2.50;;;;;;;;;;5072973;28;20048;-72
2022/06/30 15:05:07;;;;;;;4.55;2.67;;;;;;;;;;5073852;28;20031;-73